Flight Track Log - Related Links

Times and Time Zones

All times are in EDT time to prevent confusion due to time zone crossing. See the AWI3704 flight status page for this flight to view local times or setup timezone preferences in your user account.

Time Position Orientation Groundspeed Altitude Reporting Facility
EDT Latitude Longitude Course Direction KTS MPH feet Rate Location/Type
Thu 07:14:49 AM 34.3197 -77.8400 15° North 207 238 2,400  Level Washington Center
Thu 07:15:49 AM 34.3847 -77.8167 17° North 219 252 4,000 1,950 Climbing Washington Center
Thu 07:16:00 AM 34.5677 -77.7714 14° North  Level Estimated
Thu 07:16:49 AM 34.4583 -77.7986 11° North 244 281 6,300  Level Washington Center
Thu 07:17:00 AM 34.6716 -77.7500 10° North  Level FlightAware Approximate
Thu 07:17:49 AM 34.5358 -77.7778 12° North 268 308 8,700  Level Washington Center
Thu 07:18:00 AM 34.7705 -77.7056 North  Level Estimated
Thu 07:18:47 AM 34.6156 -77.7572 12° North 281 323 10,700  Level Washington Center
Thu 07:19:00 AM 34.8694 -77.6611 13° North  Level Estimated
Thu 07:19:49 AM 34.7036 -77.7344 12° North 298 343 11,800  Level Washington Center
Thu 07:20:00 AM 34.9682 -77.6165 15° North  Level Estimated
Thu 07:20:47 AM 34.8042 -77.7117 11° North 331 381 12,600  Level Washington Center
Thu 07:21:47 AM 34.9089 -77.6789 14° North 359 413 13,600 992 Climbing Washington Center
Thu 07:22:48 AM 35.0158 -77.6514 12° North 385 443 14,600 984 Climbing Washington Center
Thu 07:23:49 AM 35.1269 -77.6211 13° North 395 455 15,600 1,008 Climbing Washington Center
Thu 07:24:47 AM 35.2358 -77.5933 12° North 395 455 16,600 1,017 Climbing Washington Center
Thu 07:25:47 AM 35.3469 -77.5656 12° North 395 455 17,600 942 Climbing Washington Center
Thu 07:26:48 AM 35.4439 -77.4967 30° Northeast 395 455 18,500 992 Climbing Washington Center
Thu 07:27:48 AM 35.5369 -77.4169 35° Northeast 390 449 19,600 1,041 Climbing Washington Center
Thu 07:28:49 AM 35.6281 -77.3372 35° Northeast 401 461 20,600 843 Climbing Washington Center
Thu 07:29:49 AM 35.7189 -77.2550 36° Northeast 401 461 21,300 661 Climbing Washington Center
Thu 07:30:47 AM 35.8119 -77.1722 36° Northeast 406 467 21,900 650 Climbing Washington Center
Thu 07:31:49 AM 35.9003 -77.1075 31° Northeast 414 476 22,600 650 Climbing Washington Center
Thu 07:32:47 AM 36.0014 -77.0350 30° Northeast 409 471 23,200 555 Climbing Washington Center
Thu 07:33:48 AM 36.1022 -76.9597 31° Northeast 409 471 23,700 496 Climbing Washington Center
Thu 07:34:48 AM 36.2056 -76.8817 31° Northeast 416 479 24,200 496 Climbing Washington Center
Thu 07:35:49 AM 36.3106 -76.8086 29° Northeast 421 484 24,700 504 Climbing Washington Center
Thu 07:36:47 AM 36.4136 -76.7303 31° Northeast 426 490 25,200 508 Climbing Washington Center
Thu 07:37:47 AM 36.5186 -76.6517 31° Northeast 426 490 25,700 496 Climbing Washington Center
Thu 07:38:48 AM 36.6236 -76.5753 30° Northeast 431 496 26,200 550 Climbing Washington Center
Thu 07:39:47 AM 36.7286 -76.4936 32° Northeast 431 496 26,800 403 Climbing Washington Center
Thu 07:40:47 AM 36.8314 -76.4119 32° Northeast 431 496 27,000 99 Climbing Washington Center
Thu 07:41:48 AM 36.9383 -76.3300 31° Northeast 438 504 27,000  Level Washington Center
Thu 07:42:49 AM 37.0492 -76.2450 31° Northeast 448 516 27,000  Level Washington Center
Thu 07:43:47 AM 37.1581 -76.1625 31° Northeast 453 521 27,000  Level Washington Center
Thu 07:44:47 AM 37.2753 -76.0800 29° Northeast 458 527 27,000  Level Washington Center
Thu 07:45:47 AM 37.3861 -75.9917 32° Northeast 468 539 27,000  Level Washington Center
Thu 07:46:48 AM 37.4992 -75.9058 31° Northeast 468 539 27,000  Level Washington Center
Thu 07:47:49 AM 37.6119 -75.8172 32° Northeast 473 544 27,000 -555 Level Washington Center
Thu 07:48:47 AM 37.7225 -75.7336 31° Northeast 473 544 25,900 -1,513 Descending Washington Center
Thu 07:49:48 AM 37.8394 -75.6444 31° Northeast 478 550 24,000 -1,672 Descending Washington Center
Thu 07:50:49 AM 37.9458 -75.5603 32° Northeast 473 544 22,500 -1,361 Descending Washington Center
Thu 07:51:47 AM 38.0564 -75.4731 32° Northeast 468 539 21,300 -1,220 Descending Washington Center
Thu 07:52:47 AM 38.1689 -75.3964 28° Northeast 463 533 20,100 -1,190 Descending Washington Center
Thu 07:53:48 AM 38.2811 -75.3247 27° Northeast 452 520 18,900 -1,180 Descending Washington Center
Thu 07:54:49 AM 38.4000 -75.2500 26° Northeast 441 507 17,700 -1,160 Descending Washington Center
Thu 07:55:47 AM 38.5039 -75.1831 27° Northeast 430 495 16,600 -1,119 Descending Washington Center
Thu 07:56:47 AM 38.6122 -75.1161 26° Northeast 425 489 15,500 -1,091 Descending Washington Center
Thu 07:57:48 AM 38.7181 -75.0461 27° Northeast 420 483 14,400 -934 Descending Washington Center
Thu 07:58:49 AM 38.8242 -74.9789 26° Northeast 420 483 13,600 -744 Descending Washington Center
Thu 07:59:49 AM 38.9322 -74.9297 19° North 420 483 12,900 -559 Descending Washington Center
Thu 08:00:47 AM 39.0469 -74.9261 North 410 472 12,500 -1,017 Descending Washington Center
Thu 08:01:47 AM 39.1489 -74.9225 North 405 466 10,900 -1,240 Descending Washington Center
Thu 08:02:48 AM 39.2594 -74.9133 North 400 460 10,000 -435 Descending Washington Center
Thu 08:03:51 AM 39.3833 -74.9167 359° North 373 429 10,000  Level Philadelphia TRACON
Thu 08:04:03 AM 39.4000 -74.9167 360° North 351 404 10,000 -750 Level Philadelphia TRACON
Thu 08:05:03 AM 39.4833 -74.9500 343° North 298 343 9,100 -1,000 Descending Philadelphia TRACON
Thu 08:06:03 AM 39.5333 -75.0333 308° West 262 302 8,000 -1,091 Descending Philadelphia TRACON
Thu 08:07:04 AM 39.5500 -75.1000 288° West 230 265 6,900 -1,140 Descending Philadelphia TRACON
Thu 08:08:04 AM 39.5667 -75.1833 285° West 225 259 5,700 -1,350 Descending Philadelphia TRACON
Thu 08:09:04 AM 39.6333 -75.2000 349° North 241 277 4,200 -1,350 Descending Philadelphia TRACON
Thu 08:10:04 AM 39.6833 -75.1500 38° Northeast 248 285 3,000 -600 Descending Philadelphia TRACON
Thu 08:11:04 AM 39.7500 -75.1667 349° North 195 224 3,000 -550 Level Philadelphia TRACON
Thu 08:12:04 AM 39.8000 -75.1833 346° North 192 221 1,900 -1,050 Descending Philadelphia TRACON
Thu 08:13:04 AM 39.8333 -75.2167 322° Northwest 135 155 900 -1,000 Descending Philadelphia TRACON

Login

Don't have an account? Register now (free) for customized features, flight alerts, and more!